Time;durP1;ratioP1;P1;durP2;ratioP2;P2;SDS_P1;SDS_P2;PMS_P1;PMS_P2;Temp;Humidity;BMP_temperature;BMP_pressure;BME280_temperature;BME280_humidity;BME280_pressure;Samples;Min_cycle;Max_cycle;Signal;HPM_P1;HPM_P2
2021/04/21 00:00:35;;;;;;;20.10;18.23;;;;;21.80;100461.00;;;;2060828;28;21192;-70
2021/04/21 00:01:38;;;;;;;20.50;18.60;;;;;21.80;100459.00;;;;2077694;28;20985;-70
2021/04/21 00:02:38;;;;;;;19.65;17.95;;;;;21.80;100451.00;;;;2068231;28;20261;-72
2021/04/21 00:03:39;;;;;;;19.47;17.67;;;;;21.80;100460.00;;;;2058879;28;20224;-71
2021/04/21 00:04:39;;;;;;;19.83;18.03;;;;;21.80;100456.00;;;;2061056;28;20239;-72
2021/04/21 00:05:39;;;;;;;20.00;18.20;;;;;21.80;100459.00;;;;2051278;28;20223;-72
2021/04/21 00:06:40;;;;;;;19.40;17.60;;;;;21.80;100457.00;;;;2054598;28;20222;-71
2021/04/21 00:07:40;;;;;;;19.17;17.53;;;;;21.80;100456.00;;;;2062689;28;20292;-72
2021/04/21 00:08:40;;;;;;;20.60;18.70;;;;;21.80;100449.00;;;;2062735;28;20727;-72
2021/04/21 00:09:41;;;;;;;18.77;17.00;;;;;21.80;100440.00;;;;2062161;28;20727;-72
2021/04/21 00:10:41;;;;;;;19.17;17.47;;;;;21.80;100441.00;;;;2062520;28;20777;-72
2021/04/21 00:11:42;;;;;;;17.23;15.73;;;;;21.80;100447.00;;;;2070443;28;20581;-71
2021/04/21 00:12:42;;;;;;;18.90;17.10;;;;;21.80;100449.00;;;;2078833;28;20607;-72
2021/04/21 00:13:43;;;;;;;18.70;17.00;;;;;21.80;100456.00;;;;2079020;28;20286;-72
2021/04/21 00:14:50;;;;;;;18.23;16.67;;;;;21.80;100443.00;;;;2062601;28;20714;-72
2021/04/21 00:15:50;;;;;;;18.70;16.95;;;;;21.80;100441.00;;;;2063437;28;20715;-72
2021/04/21 00:16:55;;;;;;;16.70;15.20;;;;;21.80;100447.00;;;;2062968;28;20225;-72
2021/04/21 00:17:58;;;;;;;17.27;15.60;;;;;21.80;100451.00;;;;2055671;28;20303;-72
2021/04/21 00:18:58;;;;;;;17.98;16.27;;;;;21.80;100442.00;;;;2054987;28;20222;-72
2021/04/21 00:19:58;;;;;;;17.30;15.70;;;;;21.80;100449.00;;;;2051097;28;20223;-72
2021/04/21 00:21:00;;;;;;;18.23;16.60;;;;;21.80;100451.00;;;;2059385;28;20231;-72
2021/04/21 00:22:00;;;;;;;17.17;15.65;;;;;21.80;100445.00;;;;2062779;28;20216;-71
2021/04/21 00:23:03;;;;;;;16.80;15.40;;;;;21.80;100441.00;;;;2062437;28;20239;-72
2021/04/21 00:24:04;;;;;;;17.45;15.75;;;;;21.80;100445.00;;;;2062718;28;20752;-72
2021/04/21 00:25:05;;;;;;;16.77;15.17;;;;;21.60;100442.00;;;;2054319;28;20212;-72
2021/04/21 00:26:10;;;;;;;17.03;15.47;;;;;21.80;100453.00;;;;2054380;28;20217;-72
2021/04/21 00:27:11;;;;;;;16.90;15.40;;;;;21.80;100450.00;;;;2070866;28;20717;-70
2021/04/21 00:28:11;;;;;;;16.83;15.40;;;;;21.80;100444.00;;;;2078559;28;20210;-71
2021/04/21 00:29:11;;;;;;;16.23;14.93;;;;;21.80;100441.00;;;;2070419;28;20216;-71
2021/04/21 00:30:12;;;;;;;16.53;15.03;;;;;21.80;100438.00;;;;2062471;28;20262;-71
2021/04/21 00:31:13;;;;;;;16.40;15.00;;;;;21.80;100447.00;;;;2054179;28;20283;-72
2021/04/21 00:32:14;;;;;;;17.20;15.70;;;;;21.70;100447.00;;;;2062669;28;20452;-72
2021/04/21 00:33:18;;;;;;;17.05;15.55;;;;;21.80;100444.00;;;;2059277;28;20731;-72
2021/04/21 00:34:18;;;;;;;16.15;14.75;;;;;21.70;100433.00;;;;2055044;28;20222;-72
2021/04/21 00:35:21;;;;;;;16.20;14.80;;;;;21.70;100441.00;;;;2061949;28;20312;-72
2021/04/21 00:36:21;;;;;;;18.30;16.70;;;;;21.70;100445.00;;;;2070539;28;20204;-72
2021/04/21 00:37:22;;;;;;;16.43;14.93;;;;;21.70;100435.00;;;;2078677;28;20316;-72
2021/04/21 00:38:23;;;;;;;17.63;16.02;;;;;21.70;100434.00;;;;2062507;28;20218;-72
2021/04/21 00:39:23;;;;;;;16.40;15.00;;;;;21.80;100444.00;;;;2055883;28;20220;-72
2021/04/21 00:40:39;;;;;;;16.83;15.33;;;;;21.70;100446.00;;;;2070381;28;20229;-72
2021/04/21 00:41:48;;;;;;;16.23;14.82;;;;;21.70;100433.00;;;;2061816;28;20267;-71
2021/04/21 00:42:58;;;;;;;15.90;14.45;;;;;21.70;100436.00;;;;2061363;28;20227;-72
2021/04/21 00:44:16;;;;;;;17.20;15.60;;;;;21.70;100436.00;;;;2071319;28;20263;-72
2021/04/21 00:45:17;;;;;;;16.10;14.60;;;;;21.70;100436.00;;;;2071597;28;20771;-72
2021/04/21 00:46:26;;;;;;;15.80;14.40;;;;;21.70;100432.00;;;;2079055;28;20263;-71
2021/04/21 00:47:49;;;;;;;16.55;15.15;;;;;21.70;100430.00;;;;2068039;28;20214;-72
2021/04/21 00:49:02;;;;;;;16.15;14.85;;;;;21.70;100434.00;;;;2067218;28;20837;-72
2021/04/21 00:50:14;;;;;;;16.20;14.68;;;;;21.70;100430.00;;;;2078554;28;20223;-72
2021/04/21 00:51:19;;;;;;;15.70;14.40;;;;;21.70;100439.00;;;;2077487;28;20218;-72
2021/04/21 00:52:31;;;;;;;15.15;13.95;;;;;21.70;100436.00;;;;2055408;28;20229;-72
2021/04/21 00:53:39;;;;;;;15.82;14.52;;;;;21.70;100428.00;;;;2064829;28;20406;-72
2021/04/21 00:55:03;;;;;;;15.30;13.98;;;;;21.70;100435.00;;;;2063138;28;20213;-73
2021/04/21 00:56:19;;;;;;;16.08;14.68;;;;;21.70;100435.00;;;;2071355;28;20277;-72
2021/04/21 00:57:25;;;;;;;15.25;13.95;;;;;21.70;100431.00;;;;2071937;28;20310;-72
2021/04/21 00:58:54;;;;;;;15.50;14.27;;;;;21.70;100431.00;;;;2069359;28;20717;-72
2021/04/21 01:00:09;;;;;;;15.77;14.48;;;;;21.70;100429.00;;;;2049213;28;20251;-72
2021/04/21 01:01:10;;;;;;;16.50;14.93;;;;;21.70;100425.00;;;;2075282;28;20249;-71
2021/04/21 01:02:10;;;;;;;16.23;14.73;;;;;21.70;100431.00;;;;2061942;28;20223;-72
2021/04/21 01:03:22;;;;;;;15.47;14.27;;;;;21.70;100436.00;;;;2054188;28;21009;-72
2021/04/21 01:04:23;;;;;;;15.13;13.93;;;;;21.70;100437.00;;;;2070566;28;20607;-72
2021/04/21 01:05:27;;;;;;;15.25;13.95;;;;;21.70;100436.00;;;;2069701;28;20224;-72
2021/04/21 01:06:33;;;;;;;15.20;13.95;;;;;21.70;100431.00;;;;2058519;28;20221;-72
2021/04/21 01:07:34;;;;;;;16.10;14.65;;;;;21.70;100437.00;;;;2063673;28;20220;-72
2021/04/21 01:08:47;;;;;;;15.70;14.40;;;;;21.60;100433.00;;;;2062414;28;20239;-72
2021/04/21 01:09:50;;;;;;;14.55;13.35;;;;;21.70;100429.00;;;;2065164;28;20222;-72
2021/04/21 01:11:16;;;;;;;14.57;13.27;;;;;21.70;100429.00;;;;2077965;28;20253;-72
2021/04/21 01:12:16;;;;;;;15.50;14.20;;;;;21.60;100430.00;;;;2073197;28;20297;-72
2021/04/21 01:13:16;;;;;;;14.83;13.63;;;;;21.60;100429.00;;;;2078512;28;20215;-71
2021/04/21 01:14:25;;;;;;;13.83;12.67;;;;;21.60;100430.00;;;;2062411;28;20714;-72
2021/04/21 01:15:26;;;;;;;14.73;13.57;;;;;21.60;100426.00;;;;2063300;28;20634;-72
2021/04/21 01:16:28;;;;;;;15.30;13.97;;;;;21.60;100435.00;;;;2062193;28;20221;-72
2021/04/21 01:17:28;;;;;;;14.90;13.60;;;;;21.60;100423.00;;;;2054421;28;20308;-72
2021/04/21 01:18:28;;;;;;;15.57;14.13;;;;;21.60;100427.00;;;;2070420;28;20894;-72
2021/04/21 01:19:47;;;;;;;15.40;14.10;;;;;21.60;100434.00;;;;2062007;28;20641;-72
2021/04/21 01:21:02;;;;;;;14.90;13.70;;;;;21.60;100426.00;;;;2072371;28;20227;-72
2021/04/21 01:22:10;;;;;;;14.43;13.20;;;;;21.60;100430.00;;;;2064823;28;20225;-72
2021/04/21 01:23:32;;;;;;;14.57;13.38;;;;;21.60;100432.00;;;;2057539;28;20216;-71
2021/04/21 01:24:59;;;;;;;15.02;13.63;;;;;21.60;100430.00;;;;2064666;28;20775;-72
2021/04/21 01:26:37;;;;;;;14.80;13.60;;;;;21.60;100430.00;;;;2069181;28;20215;-72
2021/04/21 01:27:50;;;;;;;13.57;12.48;;;;;21.60;100437.00;;;;2075431;28;20293;-72
2021/04/21 01:28:51;;;;;;;15.52;14.10;;;;;21.60;100426.00;;;;2076151;28;20550;-71
2021/04/21 01:29:54;;;;;;;14.32;13.07;;;;;21.60;100420.00;;;;2070374;28;20289;-72
2021/04/21 01:30:55;;;;;;;14.20;13.10;;;;;21.60;100434.00;;;;2062724;28;20682;-72
2021/04/21 01:31:58;;;;;;;14.23;13.10;;;;;21.60;100420.00;;;;2070312;28;20220;-71
2021/04/21 01:33:00;;;;;;;13.85;12.75;;;;;21.60;100424.00;;;;2078584;28;20465;-72
2021/04/21 01:34:00;;;;;;;14.98;13.68;;;;;21.60;100425.00;;;;2060899;28;20710;-72
2021/04/21 01:35:01;;;;;;;14.40;13.20;;;;;21.60;100422.00;;;;2054388;28;20248;-72
2021/04/21 01:36:03;;;;;;;14.17;12.97;;;;;21.60;100419.00;;;;2054195;28;20212;-72
2021/04/21 01:37:04;;;;;;;13.32;12.23;;;;;21.60;100428.00;;;;2062488;28;20243;-72
2021/04/21 01:38:04;;;;;;;13.23;12.13;;;;;21.60;100424.00;;;;2076253;28;20212;-72
2021/04/21 01:39:04;;;;;;;14.83;13.63;;;;;21.60;100423.00;;;;2075783;28;20556;-72
2021/04/21 01:40:11;;;;;;;14.60;13.37;;;;;21.60;100424.00;;;;2069572;28;20593;-72
2021/04/21 01:41:17;;;;;;;14.65;13.45;;;;;21.60;100426.00;;;;2071412;28;20655;-72
2021/04/21 01:42:17;;;;;;;14.95;13.75;;;;;21.60;100433.00;;;;2085691;28;20267;-71
2021/04/21 01:43:20;;;;;;;13.00;12.00;;;;;21.60;100420.00;;;;2078350;28;20296;-72
2021/04/21 01:44:27;;;;;;;14.02;12.88;;;;;21.60;100427.00;;;;2077930;28;20229;-71
2021/04/21 01:45:29;;;;;;;12.38;11.40;;;;;21.60;100425.00;;;;2078236;28;20217;-72
2021/04/21 01:46:36;;;;;;;14.75;13.35;;;;;21.60;100425.00;;;;2078409;28;20888;-72
2021/04/21 01:47:36;;;;;;;13.25;12.25;;;;;21.50;100419.00;;;;2072819;28;20218;-72
2021/04/21 01:48:36;;;;;;;13.83;12.63;;;;;21.50;100417.00;;;;2062485;28;20735;-72
2021/04/21 01:49:37;;;;;;;12.77;11.77;;;;;21.50;100424.00;;;;2059686;28;20761;-72
2021/04/21 01:50:37;;;;;;;13.47;12.30;;;;;21.50;100420.00;;;;2070272;28;20721;-72
2021/04/21 01:51:39;;;;;;;13.60;12.50;;;;;21.50;100416.00;;;;2078898;28;20645;-72
2021/04/21 01:53:04;;;;;;;14.15;13.00;;;;;21.50;100421.00;;;;2070286;28;20655;-72
2021/04/21 01:54:11;;;;;;;13.40;12.30;;;;;21.50;100421.00;;;;2069479;28;20223;-72
2021/04/21 01:55:21;;;;;;;13.27;12.27;;;;;21.50;100416.00;;;;2078438;28;20207;-72
2021/04/21 01:56:21;;;;;;;12.90;11.80;;;;;21.50;100413.00;;;;2069130;28;20227;-71
2021/04/21 01:57:46;;;;;;;12.83;11.77;;;;;21.50;100416.00;;;;2078513;28;20803;-72
2021/04/21 01:59:02;;;;;;;13.95;12.85;;;;;21.50;100411.00;;;;2076089;28;20213;-72
2021/04/21 02:00:30;;;;;;;13.68;12.57;;;;;21.50;100420.00;;;;2080208;28;20298;-72
2021/04/21 02:01:52;;;;;;;13.80;12.70;;;;;21.50;100419.00;;;;2079329;28;20222;-70
2021/04/21 02:03:20;;;;;;;13.50;12.30;;;;;21.50;100409.00;;;;2066606;28;20661;-72
2021/04/21 02:04:57;;;;;;;13.13;12.02;;;;;21.50;100413.00;;;;2052529;28;20660;-72
2021/04/21 02:06:26;;;;;;;13.00;11.90;;;;;21.50;100422.00;;;;2077006;28;20252;-72
2021/04/21 02:07:50;;;;;;;13.93;12.73;;;;;21.50;100416.00;;;;2077442;28;20747;-72
2021/04/21 02:09:09;;;;;;;12.15;11.13;;;;;21.50;100419.00;;;;2075862;28;20219;-72
2021/04/21 02:10:16;;;;;;;12.45;11.45;;;;;21.50;100418.00;;;;2080639;28;20213;-72
2021/04/21 02:11:20;;;;;;;11.95;11.00;;;;;21.50;100422.00;;;;2076439;28;20274;-72
2021/04/21 02:12:37;;;;;;;13.48;12.38;;;;;21.50;100416.00;;;;2063645;28;20282;-72
2021/04/21 02:14:05;;;;;;;12.32;11.32;;;;;21.50;100421.00;;;;2074079;28;20218;-72
2021/04/21 02:15:52;;;;;;;12.68;11.68;;;;;21.50;100418.00;;;;2076081;28;20215;-72
2021/04/21 02:17:06;;;;;;;13.65;12.55;;;;;21.50;100430.00;;;;2046125;28;20220;-72
2021/04/21 02:18:27;;;;;;;12.43;11.43;;;;;21.50;100421.00;;;;2052481;28;20223;-72
2021/04/21 02:19:27;;;;;;;12.35;11.30;;;;;21.50;100423.00;;;;2057128;28;20717;-70
2021/04/21 02:20:33;;;;;;;13.20;12.10;;;;;21.50;100419.00;;;;2071017;28;20224;-71
2021/04/21 02:21:42;;;;;;;13.70;12.50;;;;;21.50;100425.00;;;;2063659;28;20219;-72
2021/04/21 02:22:46;;;;;;;13.68;12.50;;;;;21.50;100414.00;;;;2071191;28;20214;-72
2021/04/21 02:23:59;;;;;;;13.40;12.30;;;;;21.40;100411.00;;;;2060154;28;20215;-71
2021/04/21 02:25:26;;;;;;;13.43;12.35;;;;;21.40;100419.00;;;;2059012;28;20217;-71
2021/04/21 02:26:39;;;;;;;12.50;11.35;;;;;21.40;100417.00;;;;2071043;28;20217;-72
2021/04/21 02:27:44;;;;;;;13.27;12.20;;;;;21.40;100421.00;;;;2064800;28;20211;-72
2021/04/21 02:29:02;;;;;;;12.38;11.32;;;;;21.40;100423.00;;;;2065592;28;20219;-72
2021/04/21 02:30:41;;;;;;;12.13;11.02;;;;;21.40;100421.00;;;;2075428;28;20280;-72
2021/04/21 02:31:53;;;;;;;12.88;11.75;;;;;21.40;100418.00;;;;2046384;29;20217;-72
2021/04/21 02:33:24;;;;;;;11.98;11.00;;;;;21.40;100426.00;;;;2078852;28;20222;-72
2021/04/21 02:34:49;;;;;;;11.50;10.60;;;;;21.40;100423.00;;;;2076173;28;20214;-72
2021/04/21 02:35:58;;;;;;;10.90;10.02;;;;;21.40;100427.00;;;;2072460;28;20254;-72
2021/04/21 02:37:18;;;;;;;12.05;11.10;;;;;21.40;100424.00;;;;2071471;28;20226;-71
2021/04/21 02:38:38;;;;;;;12.98;11.77;;;;;21.40;100423.00;;;;2066256;28;20818;-72
2021/04/21 02:39:47;;;;;;;12.48;11.55;;;;;21.40;100422.00;;;;2073639;28;20227;-72
2021/04/21 02:40:53;;;;;;;12.73;11.73;;;;;21.40;100429.00;;;;2076673;28;20308;-72
2021/04/21 02:42:04;;;;;;;13.70;12.60;;;;;21.40;100424.00;;;;2080136;28;20330;-71
2021/04/21 02:43:30;;;;;;;12.50;11.50;;;;;21.40;100419.00;;;;2067504;28;20377;-71
2021/04/21 02:45:07;;;;;;;12.20;11.20;;;;;21.40;100425.00;;;;2070836;28;20225;-72
2021/04/21 02:46:28;;;;;;;12.23;11.13;;;;;21.40;100420.00;;;;2077101;28;20224;-71
2021/04/21 02:48:00;;;;;;;11.93;10.70;;;;;21.40;100422.00;;;;2067850;28;20214;-71
2021/04/21 02:49:25;;;;;;;12.35;11.32;;;;;21.40;100420.00;;;;2070364;28;20299;-72
2021/04/21 02:50:38;;;;;;;12.23;11.23;;;;;21.40;100428.00;;;;2077046;28;20245;-71
2021/04/21 02:51:55;;;;;;;11.55;10.63;;;;;21.40;100432.00;;;;2070896;28;20219;-72
2021/04/21 02:53:07;;;;;;;13.02;12.02;;;;;21.40;100427.00;;;;2065928;28;20674;-72
2021/04/21 02:54:31;;;;;;;12.27;11.18;;;;;21.40;100432.00;;;;2070989;28;20679;-72
2021/04/21 02:55:38;;;;;;;11.35;10.48;;;;;21.40;100424.00;;;;2078571;28;20218;-72
2021/04/21 02:56:53;;;;;;;11.85;10.85;;;;;21.40;100427.00;;;;2075369;28;20218;-72
2021/04/21 02:58:12;;;;;;;11.75;10.75;;;;;21.40;100423.00;;;;2072609;28;20966;-72
2021/04/21 02:59:34;;;;;;;11.43;10.52;;;;;21.40;100424.00;;;;2066304;28;20226;-72
2021/04/21 03:00:47;;;;;;;11.70;10.80;;;;;21.40;100426.00;;;;2069139;28;20218;-69
2021/04/21 03:02:23;;;;;;;12.30;11.30;;;;;21.40;100434.00;;;;2071065;28;20241;-72
2021/04/21 03:03:42;;;;;;;11.88;10.98;;;;;21.40;100426.00;;;;2070585;28;20208;-71
2021/04/21 03:04:54;;;;;;;10.85;10.05;;;;;21.30;100431.00;;;;2077874;28;20256;-72
2021/04/21 03:05:59;;;;;;;12.10;11.10;;;;;21.30;100428.00;;;;2076080;28;20218;-71
2021/04/21 03:07:01;;;;;;;12.13;11.02;;;;;21.30;100423.00;;;;2071803;28;20278;-72
2021/04/21 03:08:21;;;;;;;11.95;10.98;;;;;21.40;100428.00;;;;2078448;28;20213;-72
2021/04/21 03:09:25;;;;;;;11.48;10.57;;;;;21.40;100433.00;;;;2057562;28;20714;-72
2021/04/21 03:10:34;;;;;;;11.18;10.30;;;;;21.30;100431.00;;;;2047556;28;20225;-72
2021/04/21 03:11:35;;;;;;;11.07;10.18;;;;;21.30;100436.00;;;;2049751;28;20272;-72
2021/04/21 03:12:36;;;;;;;10.83;10.03;;;;;21.30;100436.00;;;;2055247;28;20220;-72
2021/04/21 03:13:39;;;;;;;11.93;11.03;;;;;21.30;100423.00;;;;2054708;28;20217;-72
2021/04/21 03:14:40;;;;;;;12.23;11.32;;;;;21.30;100428.00;;;;2059620;28;20555;-72
2021/04/21 03:15:44;;;;;;;13.10;12.10;;;;;21.30;100429.00;;;;2070716;28;20223;-72
2021/04/21 03:17:01;;;;;;;11.60;10.70;;;;;21.30;100427.00;;;;2070333;28;20223;-71
2021/04/21 03:18:01;;;;;;;12.50;11.50;;;;;21.30;100426.00;;;;2070829;28;20218;-72
2021/04/21 03:19:04;;;;;;;12.07;11.07;;;;;21.30;100425.00;;;;2062793;28;20976;-71
2021/04/21 03:20:12;;;;;;;12.20;11.23;;;;;21.30;100427.00;;;;2063384;28;20760;-72
2021/04/21 03:21:15;;;;;;;11.90;11.00;;;;;21.30;100435.00;;;;2071282;28;20748;-72
2021/04/21 03:22:15;;;;;;;11.60;10.57;;;;;21.30;100433.00;;;;2062435;28;20326;-72
2021/04/21 03:23:15;;;;;;;12.43;11.43;;;;;21.30;100437.00;;;;2046310;28;20208;-71
2021/04/21 03:24:21;;;;;;;11.43;10.53;;;;;21.30;100421.00;;;;2046410;28;20220;-72
2021/04/21 03:25:35;;;;;;;10.80;9.90;;;;;21.30;100436.00;;;;2055882;28;20239;-71
2021/04/21 03:26:37;;;;;;;11.77;10.85;;;;;21.30;100427.00;;;;2062659;28;20219;-72
2021/04/21 03:27:40;;;;;;;11.82;10.90;;;;;21.30;100435.00;;;;2070443;28;20218;-72
2021/04/21 03:28:41;;;;;;;12.63;11.63;;;;;21.30;100426.00;;;;2062509;28;20216;-71
2021/04/21 03:29:46;;;;;;;11.70;10.70;;;;;21.30;100432.00;;;;2063163;28;21050;-72
2021/04/21 03:30:48;;;;;;;11.40;10.50;;;;;21.30;100430.00;;;;2063616;28;20270;-71
2021/04/21 03:31:49;;;;;;;10.90;10.10;;;;;21.30;100432.00;;;;2063299;28;21022;-72
2021/04/21 03:33:13;;;;;;;11.17;10.27;;;;;21.30;100429.00;;;;2054764;28;20243;-72
2021/04/21 03:34:15;;;;;;;11.05;10.15;;;;;21.30;100428.00;;;;2042937;28;20301;-71
2021/04/21 03:35:15;;;;;;;11.65;10.70;;;;;21.20;100425.00;;;;2057551;28;20697;-72
2021/04/21 03:36:17;;;;;;;12.53;11.53;;;;;21.30;100429.00;;;;2070765;28;20246;-72
2021/04/21 03:37:57;;;;;;;11.93;10.90;;;;;21.30;100423.00;;;;2067801;28;20218;-72
2021/04/21 03:38:57;;;;;;;12.02;11.13;;;;;21.30;100434.00;;;;2075916;28;20214;-72
2021/04/21 03:39:57;;;;;;;12.00;11.00;;;;;21.30;100428.00;;;;2062409;28;20263;-72
2021/04/21 03:40:58;;;;;;;11.87;10.90;;;;;21.30;100437.00;;;;2062576;28;20294;-72
2021/04/21 03:41:58;;;;;;;11.63;10.73;;;;;21.30;100431.00;;;;2078547;28;20260;-71
2021/04/21 03:42:59;;;;;;;12.07;11.07;;;;;21.30;100423.00;;;;2079025;28;20292;-72
2021/04/21 03:43:59;;;;;;;11.30;10.40;;;;;21.30;100437.00;;;;2067443;28;20211;-72
2021/04/21 03:45:00;;;;;;;11.70;10.80;;;;;21.30;100428.00;;;;2062818;28;20231;-72
2021/04/21 03:46:00;;;;;;;11.30;10.40;;;;;21.30;100432.00;;;;2054766;28;20216;-72
2021/04/21 03:47:01;;;;;;;12.10;11.20;;;;;21.20;100420.00;;;;2070846;28;20999;-72
2021/04/21 03:48:01;;;;;;;12.47;11.47;;;;;21.20;100432.00;;;;2079032;28;20218;-71
2021/04/21 03:49:02;;;;;;;12.70;11.70;;;;;21.20;100425.00;;;;2078896;28;20232;-72
2021/04/21 03:50:06;;;;;;;11.87;10.97;;;;;21.30;100428.00;;;;2078965;28;20218;-72
2021/04/21 03:51:07;;;;;;;11.15;10.35;;;;;21.30;100419.00;;;;2071022;28;20226;-72
2021/04/21 03:52:07;;;;;;;11.57;10.77;;;;;21.20;100417.00;;;;2078746;28;20238;-72
2021/04/21 03:53:08;;;;;;;11.90;11.00;;;;;21.20;100428.00;;;;2078793;28;20626;-72
2021/04/21 03:54:09;;;;;;;11.30;10.30;;;;;21.30;100425.00;;;;2075005;28;20272;-72
2021/04/21 03:55:10;;;;;;;11.47;10.57;;;;;21.20;100413.00;;;;2062641;28;20665;-72
2021/04/21 03:56:23;;;;;;;12.93;11.80;;;;;21.20;100430.00;;;;2054584;28;20669;-72
2021/04/21 03:57:24;;;;;;;12.48;11.48;;;;;21.20;100434.00;;;;2064306;28;20223;-72
2021/04/21 03:58:25;;;;;;;11.57;10.67;;;;;21.20;100427.00;;;;2058849;28;20705;-72
2021/04/21 03:59:26;;;;;;;13.10;11.95;;;;;21.20;100425.00;;;;2067719;28;20214;-72
2021/04/21 04:00:27;;;;;;;11.27;10.47;;;;;21.20;100425.00;;;;2070536;28;20705;-71
2021/04/21 04:01:27;;;;;;;11.53;10.73;;;;;21.20;100430.00;;;;2070440;28;20459;-72
2021/04/21 04:02:27;;;;;;;12.33;11.33;;;;;21.20;100424.00;;;;2070340;28;20207;-72
2021/04/21 04:03:28;;;;;;;11.80;10.90;;;;;21.20;100421.00;;;;2056601;28;20213;-72
2021/04/21 04:04:28;;;;;;;11.87;10.90;;;;;21.20;100428.00;;;;2045661;28;20212;-72
2021/04/21 04:05:41;;;;;;;11.50;10.60;;;;;21.20;100426.00;;;;2054572;28;20229;-72
2021/04/21 04:06:43;;;;;;;12.68;11.48;;;;;21.20;100431.00;;;;2069345;28;20215;-72
2021/04/21 04:07:44;;;;;;;12.00;11.10;;;;;21.20;100432.00;;;;2070722;28;20225;-72
2021/04/21 04:08:56;;;;;;;12.30;11.30;;;;;21.20;100429.00;;;;2055077;28;20216;-72
2021/04/21 04:09:57;;;;;;;11.60;10.60;;;;;21.20;100430.00;;;;2067969;28;20219;-72
2021/04/21 04:10:57;;;;;;;11.10;10.20;;;;;21.20;100433.00;;;;2070629;28;20215;-72
2021/04/21 04:11:58;;;;;;;12.23;11.17;;;;;21.20;100432.00;;;;2070311;28;20210;-72
2021/04/21 04:12:59;;;;;;;11.43;10.43;;;;;21.20;100427.00;;;;2070730;28;20202;-72
2021/04/21 04:14:06;;;;;;;11.97;11.07;;;;;21.20;100429.00;;;;2062529;28;20211;-72
2021/04/21 04:15:08;;;;;;;11.30;10.50;;;;;21.20;100428.00;;;;2058589;28;20258;-72
2021/04/21 04:16:09;;;;;;;12.73;11.73;;;;;21.20;100429.00;;;;2063003;28;20239;-71
2021/04/21 04:17:10;;;;;;;11.48;10.60;;;;;21.20;100439.00;;;;2062527;28;20254;-72
2021/04/21 04:18:12;;;;;;;12.00;11.10;;;;;21.20;100435.00;;;;2062522;28;20679;-71
2021/04/21 04:19:12;;;;;;;12.35;11.45;;;;;21.20;100432.00;;;;2067923;28;21953;-72
2021/04/21 04:20:14;;;;;;;11.43;10.53;;;;;21.20;100420.00;;;;2079370;28;20303;-72
2021/04/21 04:21:16;;;;;;;11.60;10.75;;;;;21.20;100435.00;;;;2078888;28;20215;-72
2021/04/21 04:22:17;;;;;;;11.85;10.95;;;;;21.20;100433.00;;;;2070600;28;20215;-72
2021/04/21 04:23:18;;;;;;;11.60;10.70;;;;;21.20;100439.00;;;;2077962;28;20210;-72
2021/04/21 04:24:19;;;;;;;11.95;11.05;;;;;21.20;100442.00;;;;2078419;28;20214;-70
2021/04/21 04:25:19;;;;;;;11.30;10.40;;;;;21.20;100434.00;;;;2078659;28;20218;-71
2021/04/21 04:26:19;;;;;;;11.50;10.60;;;;;21.20;100426.00;;;;2070191;28;20215;-71
2021/04/21 04:27:24;;;;;;;11.70;10.80;;;;;21.20;100436.00;;;;2070537;28;20215;-71
2021/04/21 04:28:24;;;;;;;11.88;10.98;;;;;21.20;100429.00;;;;2059591;28;20212;-72
2021/04/21 04:29:25;;;;;;;11.80;11.00;;;;;21.20;100435.00;;;;2059210;28;20714;-72
2021/04/21 04:30:25;;;;;;;11.57;10.67;;;;;21.20;100437.00;;;;2070497;28;20713;-71
2021/04/21 04:31:26;;;;;;;11.30;10.37;;;;;21.20;100438.00;;;;2084084;28;20780;-72
2021/04/21 04:32:26;;;;;;;12.13;11.13;;;;;21.20;100422.00;;;;2070569;28;20220;-72
2021/04/21 04:33:27;;;;;;;11.77;10.87;;;;;21.20;100437.00;;;;2062428;28;20314;-72
2021/04/21 04:34:28;;;;;;;11.90;11.00;;;;;21.20;100439.00;;;;2062421;28;20211;-72
2021/04/21 04:35:29;;;;;;;11.43;10.52;;;;;21.20;100433.00;;;;2062615;28;20266;-72
2021/04/21 04:36:31;;;;;;;12.03;11.03;;;;;21.10;100422.00;;;;2070676;28;21084;-72
2021/04/21 04:37:33;;;;;;;12.73;11.75;;;;;21.10;100435.00;;;;2078070;28;20256;-72
2021/04/21 04:38:34;;;;;;;11.70;10.80;;;;;21.20;100437.00;;;;2078467;28;20772;-71
2021/04/21 04:39:35;;;;;;;11.70;10.77;;;;;21.20;100441.00;;;;2078446;28;20211;-72
2021/04/21 04:40:35;;;;;;;12.27;11.20;;;;;21.20;100438.00;;;;2070401;28;20278;-73
2021/04/21 04:41:36;;;;;;;12.30;11.30;;;;;21.20;100440.00;;;;2070339;28;20222;-72
2021/04/21 04:42:37;;;;;;;12.43;11.43;;;;;21.10;100445.00;;;;2079326;28;20237;-72
2021/04/21 04:43:37;;;;;;;12.00;11.07;;;;;21.20;100440.00;;;;2079511;28;20225;-72
2021/04/21 04:44:41;;;;;;;11.70;10.80;;;;;21.10;100438.00;;;;2070594;28;20212;-72
2021/04/21 04:45:42;;;;;;;11.80;10.90;;;;;21.20;100437.00;;;;2063469;28;20820;-72
2021/04/21 04:46:45;;;;;;;10.67;9.90;;;;;21.20;100450.00;;;;2070569;28;20340;-71
2021/04/21 04:47:47;;;;;;;11.10;10.20;;;;;21.20;100446.00;;;;2062741;28;20219;-72
2021/04/21 04:48:50;;;;;;;10.70;9.90;;;;;21.20;100438.00;;;;2070612;28;20310;-72
2021/04/21 04:50:06;;;;;;;10.68;9.93;;;;;21.10;100436.00;;;;2078633;28;20210;-72
2021/04/21 04:51:06;;;;;;;11.38;10.48;;;;;21.10;100444.00;;;;2074985;28;20218;-72
2021/04/21 04:52:07;;;;;;;11.47;10.63;;;;;21.10;100445.00;;;;2078834;28;20639;-72
2021/04/21 04:53:08;;;;;;;10.98;10.13;;;;;21.10;100444.00;;;;2070488;28;20298;-72
2021/04/21 04:54:08;;;;;;;11.67;10.73;;;;;21.10;100440.00;;;;2070516;28;20546;-72
2021/04/21 04:55:10;;;;;;;12.37;11.33;;;;;21.10;100445.00;;;;2069478;28;20234;-72
2021/04/21 04:56:10;;;;;;;12.40;11.50;;;;;21.10;100449.00;;;;2058618;28;20231;-72
2021/04/21 04:57:10;;;;;;;12.37;11.20;;;;;21.10;100434.00;;;;2062487;28;20256;-72
2021/04/21 04:58:11;;;;;;;11.23;10.43;;;;;21.10;100450.00;;;;2062075;28;20239;-73
2021/04/21 04:59:12;;;;;;;10.93;10.03;;;;;21.10;100444.00;;;;2078650;28;20219;-72
2021/04/21 05:00:15;;;;;;;11.40;10.50;;;;;21.10;100439.00;;;;2079180;28;20226;-72
2021/04/21 05:01:15;;;;;;;11.20;10.30;;;;;21.10;100447.00;;;;2074868;28;20226;-72
2021/04/21 05:02:16;;;;;;;10.97;10.17;;;;;21.10;100445.00;;;;2077721;28;20674;-72
2021/04/21 05:03:23;;;;;;;10.77;9.98;;;;;21.10;100452.00;;;;2076417;28;20217;-72
2021/04/21 05:04:46;;;;;;;12.35;11.35;;;;;21.10;100448.00;;;;2078335;28;20225;-72
2021/04/21 05:05:46;;;;;;;11.07;10.18;;;;;21.10;100445.00;;;;2075551;28;20230;-72
2021/04/21 05:06:49;;;;;;;10.67;9.87;;;;;21.10;100448.00;;;;2078783;28;20290;-72
2021/04/21 05:08:03;;;;;;;11.05;10.23;;;;;21.10;100450.00;;;;2078742;28;20222;-72
2021/04/21 05:09:04;;;;;;;10.75;9.95;;;;;21.10;100453.00;;;;2075321;28;20223;-71
2021/04/21 05:10:07;;;;;;;11.70;10.80;;;;;21.10;100442.00;;;;2078394;28;20222;-72
2021/04/21 05:11:08;;;;;;;11.00;10.10;;;;;21.10;100448.00;;;;2070564;28;20226;-72
2021/04/21 05:12:11;;;;;;;11.30;10.30;;;;;21.20;100455.00;;;;2062418;28;20306;-72
2021/04/21 05:13:13;;;;;;;11.07;10.10;;;;;21.20;100457.00;;;;2069599;28;20221;-72
2021/04/21 05:14:14;;;;;;;11.35;10.50;;;;;21.20;100458.00;;;;2074361;28;20321;-72
2021/04/21 05:15:39;;;;;;;11.48;10.52;;;;;21.20;100452.00;;;;2058914;28;20634;-72
2021/04/21 05:16:54;;;;;;;11.32;10.52;;;;;21.20;100467.00;;;;2073782;28;20276;-72
2021/04/21 05:18:01;;;;;;;11.25;10.43;;;;;21.20;100454.00;;;;2079158;28;20210;-72
2021/04/21 05:19:20;;;;;;;11.00;10.10;;;;;21.20;100453.00;;;;2078258;28;20233;-72
2021/04/21 05:20:39;;;;;;;10.35;9.55;;;;;21.20;100460.00;;;;2076630;28;20244;-72
2021/04/21 05:22:02;;;;;;;11.10;10.13;;;;;21.30;100462.00;;;;2078760;28;20214;-72
2021/04/21 05:23:17;;;;;;;10.77;9.80;;;;;21.30;100462.00;;;;2072068;28;20219;-72
2021/04/21 05:24:29;;;;;;;9.82;9.13;;;;;21.30;100463.00;;;;2078469;28;20645;-72